Time;durP1;ratioP1;P1;durP2;ratioP2;P2;SDS_P1;SDS_P2;PMS_P1;PMS_P2;Temp;Humidity;BMP_temperature;BMP_pressure;BME280_temperature;BME280_humidity;BME280_pressure;Samples;Min_cycle;Max_cycle;Signal;HPM_P1;HPM_P2
2022/05/02 00:00:47;;;;;;;0.82;0.60;;;;;;;20.09;40.53;100851.28;4951731;29;20145;-68
2022/05/02 00:03:16;;;;;;;1.92;0.73;;;;;;;20.14;40.08;100841.59;4950797;29;20157;-68
2022/05/02 00:05:45;;;;;;;3.13;0.57;;;;;;;20.20;40.26;100833.66;4951559;29;20105;-68
2022/05/02 00:08:15;;;;;;;1.88;1.10;;;;;;;20.26;41.33;100836.22;4951141;29;20047;-66
2022/05/02 00:10:44;;;;;;;2.58;0.70;;;;;;;20.30;43.34;100830.06;4951837;29;20062;-68
2022/05/02 00:13:13;;;;;;;0.88;0.63;;;;;;;20.26;41.64;100825.72;4950622;29;20047;-67
2022/05/02 00:15:41;;;;;;;3.35;1.02;;;;;;;20.27;42.97;100814.31;4950951;28;20051;-67
2022/05/02 00:18:10;;;;;;;1.52;0.98;;;;;;;20.12;41.37;100809.22;4951463;29;20058;-67
2022/05/02 00:20:40;;;;;;;1.08;0.50;;;;;;;20.01;40.57;100800.53;4951483;29;20055;-68
2022/05/02 00:23:11;;;;;;;0.57;0.50;;;;;;;20.00;40.31;100793.56;4950666;29;20065;-67
2022/05/02 00:25:41;;;;;;;2.97;0.60;;;;;;;20.01;40.52;100787.41;4951509;28;20647;-67
2022/05/02 00:28:14;;;;;;;0.93;0.47;;;;;;;19.97;42.69;100781.31;4950233;29;20150;-66
2022/05/02 00:30:43;;;;;;;1.10;0.70;;;;;;;19.94;44.26;100789.22;4950881;29;20053;-68
2022/05/02 00:33:12;;;;;;;1.75;0.50;;;;;;;19.95;42.65;100788.34;4954265;29;20044;-68
2022/05/02 00:35:40;;;;;;;1.50;0.60;;;;;;;19.91;43.01;100788.41;4951348;28;20051;-68
2022/05/02 00:38:09;;;;;;;1.23;0.80;;;;;;;19.89;41.40;100783.16;4951090;29;20091;-69
2022/05/02 00:40:37;;;;;;;2.72;1.30;;;;;;;19.91;43.03;100767.38;4953238;28;20164;-68
2022/05/02 00:43:08;;;;;;;0.90;0.57;;;;;;;19.85;41.33;100763.91;4950427;29;20328;-69
2022/05/02 00:45:39;;;;;;;2.40;1.13;;;;;;;19.80;44.73;100755.19;4951249;29;20051;-68
2022/05/02 00:48:08;;;;;;;0.80;0.70;;;;;;;19.77;44.59;100760.50;4950390;29;20043;-68
2022/05/02 00:50:39;;;;;;;2.08;0.60;;;;;;;19.64;42.42;100758.81;4951382;28;20102;-67
2022/05/02 00:53:08;;;;;;;1.15;0.57;;;;;;;19.52;42.54;100744.03;4950823;28;20450;-68
2022/05/02 00:55:37;;;;;;;0.65;0.40;;;;;;;19.55;43.56;100740.50;4950782;29;20565;-65
2022/05/02 00:58:09;;;;;;;0.68;0.60;;;;;;;19.55;42.61;100737.88;4950348;29;20474;-66
2022/05/02 01:00:40;;;;;;;4.65;0.65;;;;;;;19.52;42.56;100732.66;4950870;29;20090;-69
2022/05/02 01:03:10;;;;;;;0.45;0.40;;;;;;;19.51;43.93;100733.53;4950296;29;20599;-68
2022/05/02 01:07:08;;;;;;;0.95;0.60;;;;;;;19.48;42.86;100720.44;4950387;29;20043;-68
2022/05/02 01:08:30;;;;;;;0.93;0.73;;;;;;;19.49;44.06;100720.41;4950362;29;20059;-68
2022/05/02 01:10:59;;;;;;;0.82;0.60;;;;;;;19.52;43.36;100715.16;4949817;29;20051;-69
2022/05/02 01:13:38;;;;;;;1.27;1.00;;;;;;;19.57;43.97;100707.25;4949988;29;20055;-69
2022/05/02 01:16:14;;;;;;;1.27;0.70;;;;;;;19.48;43.06;100695.06;4950356;29;20548;-65
2022/05/02 01:18:43;;;;;;;0.70;0.50;;;;;;;19.36;43.81;100692.56;4950601;29;20481;-66
2022/05/02 01:21:15;;;;;;;0.52;0.50;;;;;;;19.32;44.42;100688.22;4949783;29;20134;-66
2022/05/02 01:23:45;;;;;;;0.70;0.60;;;;;;;19.18;44.70;100672.56;4950191;29;20055;-68
2022/05/02 01:26:13;;;;;;;0.93;0.60;;;;;;;19.10;45.10;100664.72;4953109;29;20200;-67
2022/05/02 01:28:47;;;;;;;0.68;0.60;;;;;;;19.02;44.85;100664.81;4951128;29;20094;-66
2022/05/02 01:31:16;;;;;;;4.00;0.90;;;;;;;18.99;45.91;100664.84;4950060;29;20086;-67
2022/05/02 01:33:45;;;;;;;1.30;0.70;;;;;;;18.93;46.73;100657.00;4950372;29;20047;-67
2022/05/02 01:36:16;;;;;;;1.15;0.55;;;;;;;18.87;47.66;100648.28;4950029;29;20051;-68
2022/05/02 01:38:45;;;;;;;0.93;0.50;;;;;;;18.79;49.21;100645.72;4949750;29;20671;-67
2022/05/02 01:41:13;;;;;;;1.40;0.68;;;;;;;18.73;46.45;100650.97;4952278;28;20091;-67
2022/05/02 01:43:43;;;;;;;2.42;0.80;;;;;;;18.73;47.13;100643.97;4949968;29;20087;-67
2022/05/02 01:46:13;;;;;;;0.70;0.60;;;;;;;18.73;47.15;100641.34;4950308;29;20365;-67
2022/05/02 01:48:42;;;;;;;1.65;0.90;;;;;;;18.72;48.67;100638.75;4953339;28;20051;-67
2022/05/02 01:51:10;;;;;;;0.60;0.50;;;;;;;18.67;51.90;100620.44;4954230;29;20126;-67
2022/05/02 01:53:40;;;;;;;0.85;0.50;;;;;;;18.60;50.20;100616.97;4953720;29;20137;-67
2022/05/02 01:56:09;;;;;;;1.33;0.60;;;;;;;18.59;52.19;100611.75;4953701;29;20090;-67
2022/05/02 01:58:37;;;;;;;1.98;0.70;;;;;;;18.55;53.55;100604.75;4954089;29;20055;-67
2022/05/02 02:01:06;;;;;;;1.80;0.60;;;;;;;18.50;51.16;100596.06;4953443;29;20152;-66
2022/05/02 02:03:34;;;;;;;0.60;0.55;;;;;;;18.44;52.43;100583.88;4953638;28;20218;-67
2022/05/02 02:06:02;;;;;;;1.95;0.60;;;;;;;18.44;51.84;100583.88;4953418;29;20111;-67
2022/05/02 02:08:31;;;;;;;2.40;1.25;;;;;;;18.41;51.43;100578.66;4953239;29;20047;-67
2022/05/02 02:11:03;;;;;;;1.92;0.88;;;;;;;18.33;49.23;100570.84;4953706;29;20051;-67
2022/05/02 02:13:31;;;;;;;1.27;0.60;;;;;;;18.27;50.55;100567.38;4953049;28;20052;-67
2022/05/02 02:16:01;;;;;;;0.70;0.50;;;;;;;18.20;49.38;100562.16;4953795;29;20055;-67
2022/05/02 02:18:30;;;;;;;0.85;0.50;;;;;;;18.16;49.58;100550.00;4954992;29;20117;-67
2022/05/02 02:20:58;;;;;;;0.90;0.65;;;;;;;18.12;49.52;100550.88;4955969;29;20603;-67
2022/05/02 02:23:27;;;;;;;0.98;0.60;;;;;;;18.02;51.24;100530.84;4953843;28;20071;-67
2022/05/02 02:25:56;;;;;;;0.93;0.60;;;;;;;18.06;52.57;100532.56;4953563;29;20055;-67
2022/05/02 02:28:26;;;;;;;1.00;0.55;;;;;;;18.04;52.79;100536.94;4953036;28;20608;-67
2022/05/02 02:30:54;;;;;;;0.93;0.65;;;;;;;18.00;52.66;100524.72;4961567;28;20091;-67
2022/05/02 02:33:23;;;;;;;1.30;0.75;;;;;;;17.96;52.40;100512.56;4972247;28;20663;-67
2022/05/02 02:35:51;;;;;;;2.22;0.57;;;;;;;17.94;53.20;100517.78;4971819;28;20047;-67
2022/05/02 02:38:19;;;;;;;1.75;0.57;;;;;;;17.93;53.50;100504.69;4972563;28;20130;-68
2022/05/02 02:40:48;;;;;;;2.72;0.60;;;;;;;17.91;53.53;100501.22;4977038;28;20058;-68
2022/05/02 02:43:16;;;;;;;1.05;0.73;;;;;;;17.89;53.33;100497.72;4991488;28;20104;-67
2022/05/02 02:45:46;;;;;;;2.47;0.80;;;;;;;17.91;54.54;100498.59;4992066;28;20043;-67
2022/05/02 02:48:15;;;;;;;0.90;0.70;;;;;;;17.93;54.34;100499.47;4991309;28;20138;-68
2022/05/02 02:50:43;;;;;;;1.42;0.80;;;;;;;17.92;54.42;100487.25;4992160;28;20108;-67
2022/05/02 02:53:12;;;;;;;1.08;0.80;;;;;;;17.91;56.57;100488.13;4991506;28;20563;-68
2022/05/02 02:55:40;;;;;;;1.08;0.60;;;;;;;17.89;54.03;100487.25;4991988;28;20058;-67
2022/05/02 02:58:09;;;;;;;2.55;0.90;;;;;;;17.85;53.58;100485.56;4991820;28;20124;-67
2022/05/02 03:00:37;;;;;;;2.55;1.10;;;;;;;17.81;53.55;100479.44;4990624;28;20058;-68
2022/05/02 03:03:08;;;;;;;2.80;0.90;;;;;;;17.75;54.04;100467.25;4990499;28;20134;-67
2022/05/02 03:08:22;;;;;;;1.25;0.90;;;;;;;17.58;56.36;100455.97;4991421;28;20061;-68
2022/05/02 03:10:51;;;;;;;2.63;1.10;;;;;;;17.51;55.13;100464.72;4980846;28;20046;-67
2022/05/02 03:13:19;;;;;;;2.13;1.30;;;;;;;17.42;55.01;100460.38;4974059;28;20078;-67
2022/05/02 03:15:47;;;;;;;2.22;1.30;;;;;;;17.35;55.55;100464.78;4976146;28;20109;-67
2022/05/02 03:18:18;;;;;;;2.60;1.35;;;;;;;17.29;55.83;100474.38;4972294;28;20105;-66
2022/05/02 03:20:46;;;;;;;2.13;0.98;;;;;;;17.21;58.07;100456.09;4971781;28;20097;-66
2022/05/02 03:23:14;;;;;;;4.22;1.13;;;;;;;17.12;58.12;100451.75;4971389;28;20079;-67
2022/05/02 03:25:50;;;;;;;2.70;1.30;;;;;;;17.02;56.97;100457.00;4971867;28;20086;-67
2022/05/02 03:28:19;;;;;;;3.17;1.65;;;;;;;16.93;56.62;100463.13;4971462;28;20116;-66
2022/05/02 03:30:47;;;;;;;3.13;1.50;;;;;;;16.86;57.19;100462.25;4971677;28;20539;-67
2022/05/02 03:33:17;;;;;;;2.83;1.50;;;;;;;16.81;57.41;100460.50;4971466;28;20109;-66
2022/05/02 03:35:45;;;;;;;4.97;1.40;;;;;;;16.76;63.03;100450.88;4971407;28;20089;-66
2022/05/02 03:38:14;;;;;;;3.08;1.17;;;;;;;16.71;63.00;100452.66;4971077;28;20107;-67
2022/05/02 03:40:42;;;;;;;3.50;1.52;;;;;;;16.63;60.89;100443.06;4971491;28;20059;-68
2022/05/02 03:43:11;;;;;;;2.40;1.35;;;;;;;16.59;61.25;100451.78;4951817;29;20051;-67
2022/05/02 03:45:39;;;;;;;2.13;1.20;;;;;;;16.53;64.07;100455.25;4952288;28;20062;-68
2022/05/02 03:48:08;;;;;;;1.88;1.23;;;;;;;16.47;66.96;100453.53;4951752;29;20055;-68
2022/05/02 03:50:38;;;;;;;4.32;1.83;;;;;;;16.41;64.97;100447.44;4951989;28;20575;-68
2022/05/02 03:53:08;;;;;;;5.28;1.73;;;;;;;16.35;65.85;100445.66;4951696;29;20055;-67
2022/05/02 03:55:37;;;;;;;4.78;1.88;;;;;;;16.30;67.61;100447.41;4951900;29;20208;-69
2022/05/02 03:58:06;;;;;;;5.53;1.55;;;;;;;16.27;68.45;100440.44;4952178;29;20047;-69
2022/05/02 04:00:35;;;;;;;2.53;1.35;;;;;;;16.22;67.57;100428.28;4951390;29;20082;-68
2022/05/02 04:03:04;;;;;;;5.05;1.60;;;;;;;16.19;69.15;100429.13;4951027;29;20062;-68
2022/05/02 04:05:32;;;;;;;5.20;1.65;;;;;;;16.13;68.72;100416.06;4951412;29;20119;-67
2022/05/02 04:08:02;;;;;;;3.95;1.42;;;;;;;16.09;69.61;100406.50;4952773;29;20082;-67
2022/05/02 04:10:30;;;;;;;7.97;1.33;;;;;;;16.00;71.57;100412.56;4953539;28;20501;-67
2022/05/02 04:12:59;;;;;;;7.63;2.03;;;;;;;15.89;72.25;100403.84;4951022;29;20051;-67
2022/05/02 04:15:27;;;;;;;8.32;2.70;;;;;;;15.75;71.23;100398.59;4950839;29;20540;-67
2022/05/02 04:17:58;;;;;;;5.53;2.42;;;;;;;15.69;70.78;100398.53;4951416;29;20146;-67
2022/05/02 04:20:27;;;;;;;7.72;2.72;;;;;;;15.66;71.42;100396.78;4951399;29;20051;-67
2022/05/02 04:23:02;;;;;;;7.45;2.88;;;;;;;15.68;70.10;100399.41;4950793;29;20132;-67
2022/05/02 04:25:32;;;;;;;4.25;2.05;;;;;;;15.64;68.67;100395.91;4951238;29;20059;-68
2022/05/02 04:28:00;;;;;;;5.40;2.63;;;;;;;15.62;69.17;100395.06;4951076;29;20054;-67
2022/05/02 04:30:29;;;;;;;5.85;2.13;;;;;;;15.58;68.74;100408.97;4950482;29;20083;-67
2022/05/02 04:32:57;;;;;;;4.35;1.83;;;;;;;15.53;68.91;100407.19;4950895;29;20062;-67
2022/05/02 04:35:26;;;;;;;4.70;1.60;;;;;;;15.49;68.61;100399.34;4951422;29;20051;-66
2022/05/02 04:37:54;;;;;;;3.22;1.83;;;;;;;15.46;68.75;100394.16;4950828;29;20561;-67
2022/05/02 04:40:23;;;;;;;5.40;1.75;;;;;;;15.43;69.16;100398.47;4951181;29;20512;-67
2022/05/02 04:42:53;;;;;;;3.17;1.75;;;;;;;15.38;69.26;100398.44;4952654;28;20063;-67
2022/05/02 04:45:21;;;;;;;3.97;1.95;;;;;;;15.29;70.36;100391.44;4950690;29;20134;-66
2022/05/02 04:47:50;;;;;;;5.93;2.45;;;;;;;15.22;70.83;100389.69;4950626;29;20082;-67
2022/05/02 04:50:18;;;;;;;2.85;1.80;;;;;;;15.18;70.80;100387.06;4950770;29;20048;-66
2022/05/02 04:52:47;;;;;;;4.78;1.73;;;;;;;15.13;75.12;100392.25;4950930;29;20139;-66
2022/05/02 04:55:15;;;;;;;7.65;1.52;;;;;;;15.08;76.16;100399.19;4950978;29;20082;-67
2022/05/02 04:57:44;;;;;;;6.43;1.63;;;;;;;15.04;76.36;100392.19;4950521;29;20074;-68
2022/05/02 05:00:17;;;;;;;3.92;1.48;;;;;;;14.96;77.08;100386.09;4950392;29;20135;-68
2022/05/02 05:02:46;;;;;;;7.32;1.50;;;;;;;14.92;77.72;100394.75;4950904;29;20047;-68
2022/05/02 05:05:14;;;;;;;4.07;1.67;;;;;;;14.92;78.69;100392.13;4957771;28;20082;-68
2022/05/02 05:07:43;;;;;;;4.72;1.60;;;;;;;14.92;77.57;100381.72;4951702;29;20055;-67
2022/05/02 05:10:12;;;;;;;5.68;1.75;;;;;;;14.90;79.33;100371.28;4950205;28;20050;-67
2022/05/02 05:12:55;;;;;;;6.50;1.88;;;;;;;14.86;80.89;100362.56;4950067;29;20051;-67
2022/05/02 05:18:53;;;;;;;7.75;2.58;;;;;;;14.82;89.39;100358.22;4950699;29;20445;-68
2022/05/02 05:21:32;;;;;;;9.23;2.28;;;;;;;14.86;96.23;100359.09;4949895;29;20055;-67
2022/05/02 05:24:27;;;;;;;8.48;2.42;;;;;;;14.85;95.70;100365.19;4949698;29;20059;-67
2022/05/02 05:27:09;;;;;;;3.40;1.80;;;;;;;14.80;92.17;100352.13;4950192;29;20051;-67
2022/05/02 05:29:47;;;;;;;4.47;2.17;;;;;;;14.70;91.11;100344.25;4950185;29;20047;-67
2022/05/02 05:32:30;;;;;;;11.27;2.30;;;;;;;14.56;88.59;100346.75;4949838;29;20057;-67
2022/05/02 05:35:05;;;;;;;8.30;2.10;;;;;;;14.54;88.60;100343.25;4949845;29;20044;-68
2022/05/02 05:37:51;;;;;;;4.28;2.30;;;;;;;14.48;87.51;100323.25;4950346;29;20047;-67
2022/05/02 05:40:25;;;;;;;7.38;2.70;;;;;;;14.54;86.46;100325.91;4950225;29;20047;-67
2022/05/02 05:43:04;;;;;;;6.72;2.60;;;;;;;14.53;86.31;100323.28;4952040;28;20170;-67
2022/05/02 05:45:50;;;;;;;8.80;2.92;;;;;;;14.55;87.42;100332.03;4950558;29;20058;-68
2022/05/02 05:48:29;;;;;;;7.63;3.72;;;;;;;14.53;85.83;100315.47;4950139;29;20055;-67
2022/05/02 05:51:08;;;;;;;10.50;4.25;;;;;;;14.51;83.99;100319.81;4949991;29;20077;-67
2022/05/02 05:53:55;;;;;;;13.65;4.93;;;;;;;14.49;83.53;100311.09;4950257;29;20486;-67
2022/05/02 05:56:41;;;;;;;23.05;7.95;;;;;;;14.45;82.48;100305.00;4950246;29;20082;-67
2022/05/02 05:59:12;;;;;;;14.60;4.43;;;;;;;14.43;83.02;100311.91;4951900;29;20049;-67
2022/05/02 06:01:56;;;;;;;13.07;5.15;;;;;;;14.40;82.89;100307.56;4952874;29;20059;-67
2022/05/02 06:04:29;;;;;;;13.73;5.38;;;;;;;14.36;81.88;100310.13;4950511;29;20067;-68
2022/05/02 06:07:00;;;;;;;15.88;6.68;;;;;;;14.34;83.52;100312.75;4949631;29;20134;-68
2022/05/02 06:09:30;;;;;;;12.85;5.05;;;;;;;14.31;83.63;100317.91;4950315;28;20135;-67
2022/05/02 06:11:59;;;;;;;12.57;4.57;;;;;;;14.29;83.13;100313.56;4949299;29;20557;-67
2022/05/02 06:14:32;;;;;;;8.80;3.78;;;;;;;14.24;84.10;100313.53;4949582;29;20051;-68
2022/05/02 06:19:50;;;;;;;5.13;2.78;;;;;;;14.18;85.51;100331.72;4950319;29;20125;-67
2022/05/02 06:22:19;;;;;;;4.10;2.10;;;;;;;14.11;86.23;100330.78;4952005;28;20502;-68
2022/05/02 06:24:49;;;;;;;4.57;2.10;;;;;;;14.04;87.46;100328.97;4969470;28;20379;-68
2022/05/02 06:27:18;;;;;;;2.95;1.52;;;;;;;13.97;87.70;100324.59;4968774;28;20054;-67
2022/05/02 06:29:46;;;;;;;2.80;1.10;;;;;;;13.90;89.31;100331.44;4969233;28;20078;-68
2022/05/02 06:32:16;;;;;;;2.35;1.20;;;;;;;13.80;90.15;100324.44;4930617;29;20495;-67
2022/05/02 06:34:45;;;;;;;1.75;1.00;;;;;;;13.78;89.67;100326.16;4931163;29;20110;-67
2022/05/02 06:37:32;;;;;;;4.25;0.98;;;;;;;13.73;89.03;100338.25;4947744;29;20058;-67
2022/05/02 06:40:20;;;;;;;0.95;0.70;;;;;;;13.68;83.86;100334.72;4953407;29;20047;-69
2022/05/02 06:42:59;;;;;;;1.77;0.70;;;;;;;13.66;80.26;100333.84;4955012;28;20059;-68
2022/05/02 06:45:39;;;;;;;0.90;0.60;;;;;;;13.65;78.40;100329.47;4953081;29;20143;-67
2022/05/02 06:48:29;;;;;;;2.22;0.60;;;;;;;13.64;75.75;100327.75;4953023;29;20119;-67
2022/05/02 06:51:01;;;;;;;0.38;0.38;;;;;;;13.65;74.92;100330.34;4952844;29;20057;-68
2022/05/02 06:53:34;;;;;;;;;;;;;;;13.65;73.44;100326.88;4953875;29;20083;-68
2022/05/02 06:56:10;;;;;;;1.23;0.28;;;;;;;13.65;72.44;100330.34;4956761;29;19969;-68
2022/05/02 06:58:48;;;;;;;2.58;0.60;;;;;;;13.60;71.36;100332.91;4954000;29;20083;-68
2022/05/02 07:01:25;;;;;;;1.75;0.40;;;;;;;13.56;69.98;100340.66;4952437;29;20054;-69
2022/05/02 07:04:31;;;;;;;3.50;0.38;;;;;;;13.58;70.49;100341.53;4952994;29;20054;-67
2022/05/02 07:07:11;;;;;;;1.88;0.82;;;;;;;13.55;69.93;100347.59;4952612;29;20055;-68
2022/05/02 07:09:44;;;;;;;1.20;0.40;;;;;;;13.55;69.29;100349.31;4952577;28;20059;-67
2022/05/02 07:12:18;;;;;;;1.75;0.50;;;;;;;13.50;68.83;100348.41;4952838;29;20089;-68
2022/05/02 07:15:05;;;;;;;2.95;0.30;;;;;;;13.28;67.19;100353.34;4952606;29;20482;-68
2022/05/02 07:17:58;;;;;;;2.42;0.50;;;;;;;13.19;67.10;100356.69;4951985;29;20139;-67
2022/05/02 07:20:33;;;;;;;0.43;0.15;;;;;;;13.12;67.15;100349.63;4944850;29;20400;-68
2022/05/02 07:23:36;;;;;;;1.02;0.32;;;;;;;13.06;67.31;100359.97;4951896;29;20512;-68
2022/05/02 07:26:15;;;;;;;0.65;0.30;;;;;;;13.02;65.59;100368.56;4952459;29;20513;-67
2022/05/02 07:28:45;;;;;;;2.70;0.35;;;;;;;12.99;65.69;100355.56;4952222;29;20125;-68
2022/05/02 07:31:15;;;;;;;1.02;0.38;;;;;;;12.95;65.21;100353.75;4952161;29;20710;-69
2022/05/02 07:33:46;;;;;;;5.63;0.30;;;;;;;12.95;65.68;100345.97;4952558;29;20095;-68
2022/05/02 07:36:17;;;;;;;0.73;0.22;;;;;;;12.93;65.81;100348.53;4951174;29;20122;-68
2022/05/02 07:38:48;;;;;;;1.52;0.40;;;;;;;12.95;65.42;100340.78;4951992;29;20122;-68
2022/05/02 07:41:25;;;;;;;1.52;0.30;;;;;;;12.95;65.08;100353.75;4953763;28;20093;-68
2022/05/02 07:43:59;;;;;;;0.25;0.22;;;;;;;12.92;64.94;100357.19;4951869;29;20047;-68
2022/05/02 07:46:29;;;;;;;1.48;0.40;;;;;;;12.93;65.81;100350.28;4951316;28;20057;-68
2022/05/02 07:48:59;;;;;;;0.47;0.30;;;;;;;12.93;65.95;100363.25;4951609;29;20051;-67
2022/05/02 07:51:28;;;;;;;0.60;0.30;;;;;;;12.87;65.76;100364.03;4953423;29;20055;-68
2022/05/02 07:53:59;;;;;;;1.45;0.35;;;;;;;12.83;66.23;100369.16;4953714;28;20051;-68
2022/05/02 07:56:32;;;;;;;0.70;0.20;;;;;;;12.81;68.13;100370.88;4952409;28;20059;-68
2022/05/02 07:59:02;;;;;;;1.08;0.28;;;;;;;12.77;67.95;100373.41;4951781;29;20743;-67
2022/05/02 08:01:30;;;;;;;2.47;0.40;;;;;;;12.73;68.78;100371.63;4951849;29;20086;-68
2022/05/02 08:03:59;;;;;;;0.17;0.13;;;;;;;12.65;69.70;100374.97;4951067;29;20134;-67
2022/05/02 08:07:00;;;;;;;2.15;0.30;;;;;;;12.55;69.12;100379.13;4951766;29;20118;-68
2022/05/02 08:10:07;;;;;;;0.65;0.35;;;;;;;12.48;69.96;100370.38;4926258;29;20073;-68
2022/05/02 08:12:40;;;;;;;2.53;0.50;;;;;;;12.44;69.35;100367.72;4932504;29;20139;-68
2022/05/02 08:15:15;;;;;;;1.83;0.40;;;;;;;12.36;71.14;100363.28;4945522;29;20051;-69
2022/05/02 08:18:11;;;;;;;1.70;0.70;;;;;;;12.26;71.24;100374.38;4951421;29;20130;-68
2022/05/02 08:20:48;;;;;;;1.48;0.70;;;;;;;12.20;71.42;100368.19;4944776;29;20048;-68
2022/05/02 08:29:24;;;;;;;1.75;0.47;;;;;;;12.11;70.62;100369.78;4951180;29;20524;-68
2022/05/02 08:32:01;;;;;;;0.60;0.30;;;;;;;12.09;71.88;100370.59;4950561;29;20044;-68
2022/05/02 08:34:37;;;;;;;1.15;0.40;;;;;;;12.09;71.76;100376.66;4950627;29;20081;-68
2022/05/02 08:37:32;;;;;;;0.73;0.47;;;;;;;12.07;71.79;100378.38;4950718;29;20055;-68
2022/05/02 08:40:16;;;;;;;0.40;0.20;;;;;;;12.03;72.71;100386.09;4951170;28;20070;-68
2022/05/02 08:43:33;;;;;;;1.52;0.32;;;;;;;12.02;72.52;100389.50;4952238;28;20109;-68
2022/05/02 08:46:33;;;;;;;1.38;0.35;;;;;;;11.96;71.90;100395.47;4951186;29;20051;-68
2022/05/02 08:49:43;;;;;;;0.47;0.40;;;;;;;11.93;72.36;100385.91;4937615;29;20061;-68
2022/05/02 08:52:47;;;;;;;0.40;0.30;;;;;;;11.94;72.18;100379.88;4873260;29;20052;-69
2022/05/02 08:56:00;;;;;;;1.27;0.32;;;;;;;11.90;71.81;100380.66;4939218;28;20058;-69
2022/05/02 08:59:01;;;;;;;0.47;0.38;;;;;;;11.88;72.08;100381.47;4905286;29;20121;-69
2022/05/02 09:02:14;;;;;;;1.70;0.40;;;;;;;11.87;72.45;100382.31;4950288;29;20142;-69
2022/05/02 09:05:17;;;;;;;0.63;0.40;;;;;;;11.84;72.20;100380.53;4932001;29;20096;-69
2022/05/02 09:08:08;;;;;;;2.47;0.55;;;;;;;11.80;72.64;100383.91;4950764;29;20047;-68
2022/05/02 09:10:58;;;;;;;1.85;0.40;;;;;;;11.74;73.18;100369.09;4949880;29;20055;-69
2022/05/02 09:14:02;;;;;;;1.42;0.30;;;;;;;11.73;73.34;100361.31;4950434;29;20055;-68
2022/05/02 09:17:18;;;;;;;0.50;0.30;;;;;;;11.69;72.66;100359.50;4947640;29;20497;-68
2022/05/02 09:20:29;;;;;;;1.88;0.45;;;;;;;11.67;73.20;100368.97;4950153;28;20059;-69
2022/05/02 09:23:35;;;;;;;1.23;0.40;;;;;;;11.66;73.53;100369.78;4949818;28;20513;-69
2022/05/02 09:26:42;;;;;;;1.23;0.40;;;;;;;11.61;73.59;100351.56;4940975;29;20133;-69
2022/05/02 09:29:46;;;;;;;0.40;0.30;;;;;;;11.59;74.12;100345.50;4950568;29;20058;-70
2022/05/02 09:32:21;;;;;;;1.38;0.57;;;;;;;11.57;73.60;100349.78;4969313;28;20268;-69
2022/05/02 09:34:56;;;;;;;1.33;0.40;;;;;;;11.56;75.20;100357.53;4969084;28;20051;-68
2022/05/02 09:37:39;;;;;;;1.17;0.43;;;;;;;11.51;75.80;100354.84;4969358;28;20053;-69
2022/05/02 09:40:14;;;;;;;1.55;0.45;;;;;;;11.49;77.13;100357.41;4969196;28;20094;-68
2022/05/02 09:42:52;;;;;;;2.70;0.40;;;;;;;11.47;77.79;100348.72;4982783;28;20054;-68
2022/05/02 09:52:14;;;;;;;0.75;0.60;;;;;;;11.38;78.55;100371.84;4972594;28;20105;-69
2022/05/02 09:57:57;;;;;;;2.25;0.70;;;;;;;11.21;81.08;100370.66;4988689;28;20581;-69
2022/05/02 10:03:28;;;;;;;1.70;0.90;;;;;;;11.06;84.72;100377.28;4988734;28;20085;-69
2022/05/02 10:06:04;;;;;;;2.72;0.73;;;;;;;11.00;86.59;100381.44;4988614;28;20549;-69
2022/05/02 10:08:50;;;;;;;3.15;0.75;;;;;;;10.93;89.01;100389.91;4973318;28;20061;-69
2022/05/02 10:11:35;;;;;;;1.73;0.80;;;;;;;10.83;92.07;100388.81;4972898;28;20042;-69
2022/05/02 10:14:25;;;;;;;1.15;0.75;;;;;;;10.79;95.55;100387.00;4972776;28;20050;-69
2022/05/02 10:16:59;;;;;;;2.85;0.50;;;;;;;10.70;100.00;100398.03;4973225;28;20505;-69
2022/05/02 10:19:42;;;;;;;2.58;0.30;;;;;;;10.60;100.00;100396.91;4972508;28;20126;-69
2022/05/02 10:22:25;;;;;;;1.05;0.30;;;;;;;10.49;100.00;100385.47;4972773;28;20082;-68
2022/05/02 10:25:07;;;;;;;1.52;0.40;;;;;;;10.38;100.00;100380.03;4972986;28;20053;-69
2022/05/02 10:27:41;;;;;;;0.43;0.22;;;;;;;10.30;100.00;100386.72;4972354;28;20847;-69
2022/05/02 10:30:14;;;;;;;0.20;0.10;;;;;;;10.25;100.00;100381.38;4973051;28;20424;-69
2022/05/02 10:32:53;;;;;;;1.58;0.40;;;;;;;10.20;100.00;100380.41;4972512;28;20074;-71
2022/05/02 10:35:22;;;;;;;0.82;0.40;;;;;;;10.08;100.00;100380.13;4972270;28;20043;-71
2022/05/02 10:37:59;;;;;;;0.40;0.30;;;;;;;9.96;100.00;100383.22;4972890;28;20051;-72
2022/05/02 10:40:40;;;;;;;0.80;0.40;;;;;;;9.82;100.00;100382.88;4972513;28;20137;-72
2022/05/02 10:43:10;;;;;;;0.98;0.40;;;;;;;9.78;100.00;100385.34;4962017;28;20074;-72
2022/05/02 10:45:42;;;;;;;1.75;0.55;;;;;;;9.73;100.00;100386.94;4953720;29;20110;-72
2022/05/02 10:48:17;;;;;;;1.20;0.50;;;;;;;9.68;100.00;100379.06;4953455;29;20051;-71
2022/05/02 10:51:05;;;;;;;2.28;0.20;;;;;;;9.64;100.00;100372.03;4953026;29;20725;-71
2022/05/02 10:53:59;;;;;;;0.08;0.00;;;;;;;9.54;100.00;100370.06;4953151;29;20118;-70
2022/05/02 10:56:37;;;;;;;0.28;0.20;;;;;;;9.45;100.00;100370.69;4952940;29;20078;-71
2022/05/02 10:59:06;;;;;;;0.20;0.20;;;;;;;9.42;100.00;100376.63;4952791;29;20055;-71
2022/05/02 11:02:10;;;;;;;2.80;0.38;;;;;;;9.40;100.00;100362.81;4952362;29;20082;-71
2022/05/02 11:05:07;;;;;;;0.30;0.15;;;;;;;9.24;100.00;100373.53;4924378;29;20121;-72
2022/05/02 11:07:46;;;;;;;0.85;0.20;;;;;;;9.20;100.00;100366.53;4952067;29;20122;-71
2022/05/02 11:10:19;;;;;;;1.70;0.28;;;;;;;9.20;100.00;100363.94;4952831;29;20055;-73
2022/05/02 11:12:53;;;;;;;0.60;0.20;;;;;;;9.20;100.00;100369.09;4952644;29;20086;-73
2022/05/02 11:15:26;;;;;;;0.17;0.10;;;;;;;9.19;100.00;100372.53;4952515;29;20051;-71
2022/05/02 11:18:07;;;;;;;0.32;0.10;;;;;;;9.15;100.00;100368.09;4952324;28;20174;-70
2022/05/02 11:20:50;;;;;;;0.82;0.10;;;;;;;9.17;100.00;100374.19;4951954;28;20057;-72
2022/05/02 11:23:47;;;;;;;1.05;0.30;;;;;;;9.15;100.00;100375.84;4962354;28;20081;-73
2022/05/02 11:26:22;;;;;;;0.70;0.15;;;;;;;9.18;100.00;100381.09;4952688;28;20150;-71
2022/05/02 11:29:06;;;;;;;0.17;0.10;;;;;;;9.15;100.00;100373.28;4952483;29;20061;-71
2022/05/02 11:31:37;;;;;;;2.10;0.20;;;;;;;9.14;100.00;100371.50;4951901;29;20059;-72
2022/05/02 11:34:19;;;;;;;0.10;0.10;;;;;;;9.15;100.00;100368.09;4952122;29;20047;-72
2022/05/02 11:36:55;;;;;;;0.30;0.20;;;;;;;9.16;100.00;100372.44;4952096;29;20048;-71
2022/05/02 11:39:37;;;;;;;0.43;0.10;;;;;;;9.14;100.00;100362.06;4952248;29;20062;-72
2022/05/02 11:42:14;;;;;;;1.45;0.35;;;;;;;9.18;100.00;100365.59;4956561;28;20121;-71
2022/05/02 11:44:50;;;;;;;0.25;0.17;;;;;;;9.20;100.00;100366.53;4972018;28;20079;-70
2022/05/02 11:47:27;;;;;;;0.32;0.20;;;;;;;9.18;100.00;100366.47;4970942;28;20057;-72
2022/05/02 11:50:04;;;;;;;0.30;0.20;;;;;;;9.08;100.00;100361.03;4950434;28;20119;-71
2022/05/02 11:52:35;;;;;;;0.63;0.13;;;;;;;9.03;100.00;100366.03;4950580;29;20074;-76
2022/05/02 11:55:05;;;;;;;1.43;0.17;;;;;;;8.96;100.00;100364.13;4951855;28;20099;-72
2022/05/02 11:57:38;;;;;;;1.65;0.32;;;;;;;8.95;100.00;100367.50;4952228;29;20078;-74
2022/05/02 12:00:11;;;;;;;0.00;0.00;;;;;;;8.93;100.00;100362.34;4951957;29;20051;-73
2022/05/02 12:02:48;;;;;;;1.02;0.20;;;;;;;8.91;100.00;100363.09;4951420;29;20102;-73
2022/05/02 12:05:27;;;;;;;0.30;0.20;;;;;;;8.87;100.00;100369.00;4951881;28;20066;-73
2022/05/02 12:07:59;;;;;;;0.22;0.10;;;;;;;8.81;100.00;100374.84;4951402;29;20047;-73
2022/05/02 12:10:39;;;;;;;0.40;0.40;;;;;;;8.67;100.00;100370.97;4951688;29;20130;-74
2022/05/02 12:13:10;;;;;;;0.03;0.03;;;;;;;8.60;100.00;100378.50;4951522;29;20517;-75
2022/05/02 12:16:00;;;;;;;0.35;0.20;;;;;;;8.60;100.00;100369.91;4951322;29;20044;-73
2022/05/02 12:18:42;;;;;;;1.35;0.40;;;;;;;8.52;100.00;100364.50;4951448;28;20051;-73
2022/05/02 12:21:13;;;;;;;3.95;0.40;;;;;;;8.35;100.00;100369.09;4951318;29;20044;-70
2022/05/02 12:23:44;;;;;;;0.25;0.20;;;;;;;8.35;100.00;100365.63;4950968;29;20506;-72
2022/05/02 12:26:20;;;;;;;1.23;0.10;;;;;;;8.31;100.00;100361.19;4950827;29;20134;-75
2022/05/02 12:28:51;;;;;;;0.40;0.20;;;;;;;8.38;100.00;100369.19;4951422;29;20058;-73
2022/05/02 12:31:23;;;;;;;0.35;0.10;;;;;;;8.37;100.00;100369.16;4950606;28;20130;-75